Aeroporto :
LOGIN :

Iscrizione | Disclaimer

   EN    FR    IT 

 










Sommario :    VFR   VFR Marginale   IFR   IFR Intensivo   IFR Molto Intensivo
Visibilità : 
Base nubi : 
>= 8 km
>= 3000ft
5 / 8 km
1000 / 3000 ft
1500m / 5 km
500 / 1000 ft
800 / 1500m
200 / 500 ft
< 800m
< 200 ft
Simboli :   Temporali  Nebbia  Neve Forte  Precipitazioni Forti  Vento > 20 kt
SIGMETs :   Varie  Temporali  Ghiacco  Turbolenza  Onda orograficha  Ceneri Vulcaniche






- Altitudine del aeroporto : 160 ft
- Codice IATA : FMO


EDDG - Münster Osnabrück Int.

ULTIMO METAR :
  • 271320Z 32005KT 240V020 CAVOK 22/09 Q1032 NOSIG

METARs OBSOLETI :
  • 271250Z 30008KT 240V010 CAVOK 23/09 Q1032 NOSIG
  • 271220Z 32008KT 280V360 CAVOK 22/09 Q1032 NOSIG
  • 271150Z 30006KT 260V340 CAVOK 22/08 Q1032 NOSIG
  • 271120Z 25006KT 160V290 CAVOK 22/07 Q1032 NOSIG
  • 271050Z VRB05KT CAVOK 22/07 Q1032 NOSIG
  • 271020Z 27006KT 210V350 CAVOK 22/07 Q1033 NOSIG

TAF TAF EDDG
Valido dal 27 a 12 ore il 28 a 12 ore UTC


271100Z 2712/2812 32005KT CAVOK
BECMG 2712/2715 35010KT
BECMG 2720/2724 36004KT
BECMG 2806/2809 01009KT



MetMap, La meteo Aeronautica in un colpo d'occhio ! - Copyright ORBIFLY Dicembre 2007 - Disclaimer

ORBIFLY MET'MAP TEAM :

Programmazione e sviluppo : Alexandra Zaïnal
Concezione : Baudouin d'Aumeries
Aiuto per la programmazione : Marc-Olivier Méhu
Supporto tecnico e logistico : Manuel Goepfert
Aiuto per la traduzione : Arnaldo La Scala

Contatto : metmap@orbifly.com




FONTI E CREDITI :

   NOAA